Historyczne dane pomiarowe

Dodano dane terminowe – wersja testowa.

Dane z okresu 1951-2019

Wersja bazy: 1.34 [2019-03-16, lista zmian], aktualizacja planowana na 2019-04-15

Dane meteo z obszaru Polski uzyskane na podstawie danych udostępnionych przez Instytut Meteorologii i Gospodarki Wodnej – Państwowy Instytut Badawczy.

 

Wybierz Datę:    

       

TemperaturaWilgotnośćWiatrCiśnienieOpadyŚniegCzas trwania zjawisk
 Stacja t tx tn tng RH VA  wxwx mslp ppp RRR   cm mm wxwxwxwxwxwxwx
1995-10-11 9.4 23.3 1.7- 82.5- 0.0 0.3---- 0.0------------
1995-10-12 9.2 22.3 1.7- 84.5- 0.7 0.7---- 0.0------------
1995-10-13 7.4 20.2 0.7- 83.5- 1.0 1.0---- 0.0------------
1995-10-14 6.8 18.1 -0.2- 86.0- 0.7 0.3---- 0.0------------
1995-10-15 6.5 12.9 -0.9- 94.0- 6.7 0.3---- 0.0------------
1995-10-16 8.5 14.5 4.7- 88.8- 3.3 1.3---- 0.0------------
1995-10-17 5.1 12.9 0.1- 92.0- 5.3 0.3---- 0.0------------
1995-10-18 5.8 16.3 -0.3- 87.0- 5.7 0.7---- 0.0------------
1995-10-19 9.0 14.4 3.7- 83.3- 5.3 1.3---- 0.0------------
1995-10-20 10.2 13.4 7.7- 79.5- 7.7 2.3---- 3.5------------
1995-10-21 4.3 9.9 2.0- 82.0- 6.3 1.3---- 0.0------------
1995-10-22 0.8 6.1 -2.8- 81.0- 0.3 1.0---- 0.0------------
1995-10-23 -1.4 9.7 -7.3- 84.3- 1.0 0.3---- 0.0------------
1995-10-24 -0.9 12.4 -7.3- 86.5- 0.0 0.3---- 0.0------------
1995-10-25 0.4 13.9 -6.3- 81.0- 0.0 0.3---- 0.0------------
1995-10-26 1.4 13.9 -5.3- 85.3- 0.3 1.0---- 0.0------------
1995-10-27 2.1 13.5 -3.8- 82.5- 0.0 1.0---- 0.0------------
1995-10-28 4.0 14.0 -3.8- 83.0- 4.7 0.7---- 1.0------------
1995-10-29 8.0 9.9 5.7- 97.3- 8.0 0.0---- 2.3------------
1995-10-30 8.4 11.1 7.2- 97.5- 8.0 0.3---- 1.6------------
1995-10-31 6.2 9.0 3.8- 96.0- 8.0 0.3---- 1.0------------
1995-11-01 4.3 7.4 0.0- 75.8- 7.3 1.3---- 0.6------------
1995-11-02 1.1 4.5 -0.4- 94.3- 8.0 1.0---- 1.6------------
1995-11-03 1.4 4.1 -0.8- 78.3- 7.7 1.7---- 11.5------------
1995-11-04 -4.0 2.9 -5.4- 92.8- 8.0 1.3---- 23.7-- 19---------
1995-11-05 -5.2 -3.5 -5.5- 88.8- 8.0 1.0---- 5.2-- 35---------
1995-11-06 -4.3 -2.2 -5.4- 91.5- 8.0 0.3---- 15.7-- 40---------
1995-11-07 -1.8 0.3 -3.3- 83.8- 8.0 1.7---- 2.6-- 49---------
1995-11-08 -5.7 -2.8 -7.2- 86.5- 7.7 1.0---- 0.3-- 45---------
1995-11-09 -6.8 -0.2-14.3- 89.0- 3.0 0.7---- 0.0-- 40---------
189.4 ms

 

Źródłem pochodzenia danych jest Instytut Meteorologii i Gospodarki Wodnej – Państwowy Instytut Badawczy. Dane Instytutu Meteorologii i Gospodarki Wodnej – Państwowego Instytutu Badawczego zostały przetworzone.

Dane źródłowe można odnaleźć na stronie https://dane.imgw.pl